sensor_id;sensor_type;location;lat;lon;timestamp;pressure;altitude;pressure_sealevel;temperature;humidity
13486;BME280;6815;59.336;17.998;2022-07-01T00:01:23;101159.28;;;20.00;100.00
13486;BME280;6815;59.336;17.998;2022-07-01T00:03:48;101164.00;;;19.76;100.00
13486;BME280;6815;59.336;17.998;2022-07-01T00:06:15;101193.31;;;19.79;100.00
13486;BME280;6815;59.336;17.998;2022-07-01T00:08:40;101189.63;;;19.81;100.00
13486;BME280;6815;59.336;17.998;2022-07-01T00:11:06;101199.03;;;19.90;100.00
13486;BME280;6815;59.336;17.998;2022-07-01T00:13:32;101187.09;;;19.78;100.00
13486;BME280;6815;59.336;17.998;2022-07-01T00:15:57;101180.19;;;19.73;100.00
13486;BME280;6815;59.336;17.998;2022-07-01T00:18:23;101206.84;;;19.95;100.00
13486;BME280;6815;59.336;17.998;2022-07-01T00:20:49;101195.41;;;19.91;100.00
13486;BME280;6815;59.336;17.998;2022-07-01T00:23:17;101185.78;;;19.87;100.00
13486;BME280;6815;59.336;17.998;2022-07-01T00:25:43;101173.69;;;19.78;100.00
13486;BME280;6815;59.336;17.998;2022-07-01T00:28:09;101195.03;;;19.80;100.00
13486;BME280;6815;59.336;17.998;2022-07-01T00:30:34;101182.16;;;19.69;100.00
13486;BME280;6815;59.336;17.998;2022-07-01T00:32:59;101190.34;;;19.85;100.00
13486;BME280;6815;59.336;17.998;2022-07-01T00:35:25;101174.84;;;19.73;100.00
13486;BME280;6815;59.336;17.998;2022-07-01T00:37:50;101190.53;;;19.80;100.00
13486;BME280;6815;59.336;17.998;2022-07-01T00:40:16;101163.19;;;19.74;100.00
13486;BME280;6815;59.336;17.998;2022-07-01T00:42:41;101177.75;;;19.87;100.00
13486;BME280;6815;59.336;17.998;2022-07-01T00:45:11;101135.91;;;19.66;100.00
13486;BME280;6815;59.336;17.998;2022-07-01T00:47:38;101163.19;;;19.74;100.00
13486;BME280;6815;59.336;17.998;2022-07-01T00:50:10;101176.50;;;19.75;100.00
13486;BME280;6815;59.336;17.998;2022-07-01T00:52:35;101186.56;;;19.89;100.00
13486;BME280;6815;59.336;17.998;2022-07-01T00:55:03;101159.78;;;19.70;100.00
13486;BME280;6815;59.336;17.998;2022-07-01T00:57:31;101137.09;;;19.58;100.00
13486;BME280;6815;59.336;17.998;2022-07-01T00:59:57;101129.72;;;19.63;100.00
13486;BME280;6815;59.336;17.998;2022-07-01T01:02:22;101153.72;;;19.85;100.00
13486;BME280;6815;59.336;17.998;2022-07-01T01:04:48;101133.25;;;19.66;100.00
13486;BME280;6815;59.336;17.998;2022-07-01T01:07:13;101161.13;;;19.60;100.00
13486;BME280;6815;59.336;17.998;2022-07-01T01:09:39;101153.94;;;19.81;100.00
13486;BME280;6815;59.336;17.998;2022-07-01T01:12:05;101151.63;;;19.73;100.00
13486;BME280;6815;59.336;17.998;2022-07-01T01:14:45;101137.47;;;19.51;100.00
13486;BME280;6815;59.336;17.998;2022-07-01T01:17:13;101136.47;;;19.53;100.00
13486;BME280;6815;59.336;17.998;2022-07-01T01:19:39;101138.94;;;19.77;100.00
13486;BME280;6815;59.336;17.998;2022-07-01T01:22:05;101093.47;;;19.37;100.00
13486;BME280;6815;59.336;17.998;2022-07-01T01:24:31;101138.47;;;19.69;100.00
13486;BME280;6815;59.336;17.998;2022-07-01T01:26:56;101132.00;;;19.73;100.00
13486;BME280;6815;59.336;17.998;2022-07-01T01:29:21;101120.13;;;19.59;100.00
13486;BME280;6815;59.336;17.998;2022-07-01T01:31:47;101125.94;;;19.69;100.00
13486;BME280;6815;59.336;17.998;2022-07-01T01:34:12;101112.09;;;19.59;100.00
13486;BME280;6815;59.336;17.998;2022-07-01T01:36:38;101095.88;;;19.62;100.00
13486;BME280;6815;59.336;17.998;2022-07-01T01:39:04;101084.81;;;19.51;100.00
13486;BME280;6815;59.336;17.998;2022-07-01T01:41:42;101117.94;;;19.86;100.00
13486;BME280;6815;59.336;17.998;2022-07-01T01:44:07;101102.09;;;19.63;100.00
13486;BME280;6815;59.336;17.998;2022-07-01T01:46:33;101116.66;;;19.76;100.00
13486;BME280;6815;59.336;17.998;2022-07-01T01:49:06;101088.88;;;19.79;100.00
13486;BME280;6815;59.336;17.998;2022-07-01T01:51:32;101096.38;;;19.90;100.00
13486;BME280;6815;59.336;17.998;2022-07-01T01:53:58;101096.31;;;19.91;100.00
13486;BME280;6815;59.336;17.998;2022-07-01T01:56:24;101070.13;;;19.79;100.00
13486;BME280;6815;59.336;17.998;2022-07-01T01:58:50;101078.84;;;19.84;100.00
13486;BME280;6815;59.336;17.998;2022-07-01T02:01:18;101070.56;;;19.88;100.00
13486;BME280;6815;59.336;17.998;2022-07-01T02:03:44;101099.88;;;19.92;100.00
13486;BME280;6815;59.336;17.998;2022-07-01T02:06:12;101097.91;;;19.95;100.00
13486;BME280;6815;59.336;17.998;2022-07-01T02:08:39;101082.56;;;19.80;100.00
13486;BME280;6815;59.336;17.998;2022-07-01T02:11:05;101096.34;;;19.72;100.00
13486;BME280;6815;59.336;17.998;2022-07-01T02:13:31;101070.84;;;19.63;100.00
13486;BME280;6815;59.336;17.998;2022-07-01T02:15:58;101070.28;;;19.76;100.00
13486;BME280;6815;59.336;17.998;2022-07-01T02:18:23;101061.56;;;19.52;100.00
13486;BME280;6815;59.336;17.998;2022-07-01T02:20:49;101092.34;;;19.62;100.00
13486;BME280;6815;59.336;17.998;2022-07-01T02:23:14;101102.50;;;19.74;100.00
13486;BME280;6815;59.336;17.998;2022-07-01T02:25:40;101097.59;;;19.63;100.00
13486;BME280;6815;59.336;17.998;2022-07-01T02:28:07;101105.72;;;19.62;100.00
13486;BME280;6815;59.336;17.998;2022-07-01T02:30:33;101079.31;;;19.54;100.00
13486;BME280;6815;59.336;17.998;2022-07-01T02:33:02;101101.69;;;19.72;100.00
13486;BME280;6815;59.336;17.998;2022-07-01T02:35:28;101105.38;;;19.70;100.00
13486;BME280;6815;59.336;17.998;2022-07-01T02:37:53;101083.72;;;19.55;100.00
13486;BME280;6815;59.336;17.998;2022-07-01T02:40:19;101102.13;;;19.82;100.00
13486;BME280;6815;59.336;17.998;2022-07-01T02:42:44;101101.84;;;19.69;100.00
13486;BME280;6815;59.336;17.998;2022-07-01T02:45:09;101101.91;;;19.68;100.00
13486;BME280;6815;59.336;17.998;2022-07-01T02:47:37;101071.66;;;19.47;100.00
13486;BME280;6815;59.336;17.998;2022-07-01T02:50:03;101085.63;;;19.72;100.00
13486;BME280;6815;59.336;17.998;2022-07-01T02:52:29;101057.44;;;19.65;100.00
13486;BME280;6815;59.336;17.998;2022-07-01T02:54:55;101068.75;;;19.70;100.00
13486;BME280;6815;59.336;17.998;2022-07-01T02:57:22;101094.16;;;19.80;100.00
13486;BME280;6815;59.336;17.998;2022-07-01T02:59:48;101092.28;;;19.82;100.00
13486;BME280;6815;59.336;17.998;2022-07-01T03:02:13;101072.25;;;19.72;100.00
13486;BME280;6815;59.336;17.998;2022-07-01T03:04:39;101075.34;;;19.82;100.00
13486;BME280;6815;59.336;17.998;2022-07-01T03:07:04;101058.72;;;19.75;100.00
13486;BME280;6815;59.336;17.998;2022-07-01T03:09:30;101068.28;;;19.81;100.00
13486;BME280;6815;59.336;17.998;2022-07-01T03:11:55;101114.50;;;19.84;100.00
13486;BME280;6815;59.336;17.998;2022-07-01T03:14:21;101129.34;;;19.73;100.00
13486;BME280;6815;59.336;17.998;2022-07-01T03:16:46;101096.03;;;19.59;100.00
13486;BME280;6815;59.336;17.998;2022-07-01T03:19:15;101079.28;;;19.75;100.00
13486;BME280;6815;59.336;17.998;2022-07-01T03:21:41;101109.13;;;20.03;100.00
13486;BME280;6815;59.336;17.998;2022-07-01T03:24:06;101094.13;;;20.18;100.00
13486;BME280;6815;59.336;17.998;2022-07-01T03:26:32;101059.91;;;20.06;100.00
13486;BME280;6815;59.336;17.998;2022-07-01T03:28:57;101076.41;;;19.97;100.00
13486;BME280;6815;59.336;17.998;2022-07-01T03:31:24;101026.44;;;19.78;100.00
13486;BME280;6815;59.336;17.998;2022-07-01T03:33:49;101042.78;;;19.91;100.00
13486;BME280;6815;59.336;17.998;2022-07-01T03:36:15;101041.19;;;19.87;100.00
13486;BME280;6815;59.336;17.998;2022-07-01T03:38:40;101015.91;;;19.93;100.00
13486;BME280;6815;59.336;17.998;2022-07-01T03:41:06;101009.22;;;19.84;100.00
13486;BME280;6815;59.336;17.998;2022-07-01T03:43:31;101012.91;;;19.81;100.00
13486;BME280;6815;59.336;17.998;2022-07-01T03:45:56;101022.44;;;19.87;100.00
13486;BME280;6815;59.336;17.998;2022-07-01T03:48:22;100985.63;;;19.73;100.00
13486;BME280;6815;59.336;17.998;2022-07-01T03:50:47;101016.69;;;19.95;100.00
13486;BME280;6815;59.336;17.998;2022-07-01T03:53:13;100972.97;;;19.77;100.00
13486;BME280;6815;59.336;17.998;2022-07-01T03:55:57;100982.91;;;19.75;100.00
13486;BME280;6815;59.336;17.998;2022-07-01T03:58:22;101012.22;;;19.95;100.00
13486;BME280;6815;59.336;17.998;2022-07-01T04:00:48;100999.78;;;19.94;100.00
13486;BME280;6815;59.336;17.998;2022-07-01T04:03:13;101006.84;;;19.95;100.00
13486;BME280;6815;59.336;17.998;2022-07-01T04:05:38;101002.75;;;19.88;100.00
13486;BME280;6815;59.336;17.998;2022-07-01T04:08:05;101023.56;;;20.00;100.00
13486;BME280;6815;59.336;17.998;2022-07-01T04:10:31;101015.91;;;19.93;100.00
13486;BME280;6815;59.336;17.998;2022-07-01T04:12:59;101019.63;;;19.90;100.00
13486;BME280;6815;59.336;17.998;2022-07-01T04:15:25;101011.91;;;19.84;100.00
13486;BME280;6815;59.336;17.998;2022-07-01T04:17:50;101006.28;;;19.71;100.00
13486;BME280;6815;59.336;17.998;2022-07-01T04:20:16;101008.16;;;19.69;100.00
13486;BME280;6815;59.336;17.998;2022-07-01T04:22:42;101038.00;;;19.79;100.00
13486;BME280;6815;59.336;17.998;2022-07-01T04:25:08;101036.44;;;19.75;100.00
13486;BME280;6815;59.336;17.998;2022-07-01T04:27:34;101037.31;;;19.75;100.00
13486;BME280;6815;59.336;17.998;2022-07-01T04:29:59;101030.38;;;19.71;100.00
13486;BME280;6815;59.336;17.998;2022-07-01T04:32:27;101006.47;;;19.48;100.00
13486;BME280;6815;59.336;17.998;2022-07-01T04:34:53;101037.59;;;19.69;100.00
13486;BME280;6815;59.336;17.998;2022-07-01T04:37:18;101021.84;;;19.61;100.00
13486;BME280;6815;59.336;17.998;2022-07-01T04:39:44;100989.75;;;19.42;100.00
13486;BME280;6815;59.336;17.998;2022-07-01T04:42:10;101022.53;;;19.67;100.00
13486;BME280;6815;59.336;17.998;2022-07-01T04:44:37;101001.41;;;19.60;100.00
13486;BME280;6815;59.336;17.998;2022-07-01T04:47:03;101000.25;;;19.47;100.00
13486;BME280;6815;59.336;17.998;2022-07-01T04:49:30;100986.75;;;19.50;100.00
13486;BME280;6815;59.336;17.998;2022-07-01T04:51:56;101029.63;;;19.68;100.00
13486;BME280;6815;59.336;17.998;2022-07-01T04:54:23;100993.97;;;19.48;100.00
13486;BME280;6815;59.336;17.998;2022-07-01T04:56:50;101003.44;;;19.36;100.00
13486;BME280;6815;59.336;17.998;2022-07-01T04:59:16;101007.94;;;19.36;100.00
13486;BME280;6815;59.336;17.998;2022-07-01T05:01:43;101004.47;;;19.53;100.00
13486;BME280;6815;59.336;17.998;2022-07-01T05:04:11;101004.22;;;19.57;100.00
13486;BME280;6815;59.336;17.998;2022-07-01T05:06:36;101017.03;;;19.51;100.00
13486;BME280;6815;59.336;17.998;2022-07-01T05:09:02;101020.66;;;19.50;100.00
13486;BME280;6815;59.336;17.998;2022-07-01T05:11:28;101006.19;;;19.35;100.00
13486;BME280;6815;59.336;17.998;2022-07-01T05:13:54;101010.25;;;19.44;100.00
13486;BME280;6815;59.336;17.998;2022-07-01T05:16:20;100967.59;;;19.22;100.00
13486;BME280;6815;59.336;17.998;2022-07-01T05:18:45;100997.94;;;19.39;100.00
13486;BME280;6815;59.336;17.998;2022-07-01T05:21:29;101015.03;;;19.37;100.00
13486;BME280;6815;59.336;17.998;2022-07-01T05:24:13;100987.97;;;19.43;100.00
13486;BME280;6815;59.336;17.998;2022-07-01T05:26:41;100999.69;;;19.40;100.00
13486;BME280;6815;59.336;17.998;2022-07-01T05:29:06;100997.03;;;19.40;100.00
13486;BME280;6815;59.336;17.998;2022-07-01T05:31:32;100964.69;;;19.26;100.00
13486;BME280;6815;59.336;17.998;2022-07-01T05:33:58;100979.31;;;19.38;100.00
13486;BME280;6815;59.336;17.998;2022-07-01T05:36:23;100974.22;;;19.51;100.00
13486;BME280;6815;59.336;17.998;2022-07-01T05:38:49;100983.25;;;19.48;100.00
13486;BME280;6815;59.336;17.998;2022-07-01T05:41:14;100974.00;;;19.36;100.00
13486;BME280;6815;59.336;17.998;2022-07-01T05:43:41;100970.41;;;19.37;100.00
13486;BME280;6815;59.336;17.998;2022-07-01T05:46:06;100977.28;;;19.43;100.00
13486;BME280;6815;59.336;17.998;2022-07-01T05:48:31;100942.03;;;19.33;100.00
13486;BME280;6815;59.336;17.998;2022-07-01T05:50:57;100976.75;;;19.54;100.00
13486;BME280;6815;59.336;17.998;2022-07-01T05:53:22;100953.38;;;19.21;100.00
13486;BME280;6815;59.336;17.998;2022-07-01T05:55:48;100966.13;;;19.33;100.00
13486;BME280;6815;59.336;17.998;2022-07-01T05:58:14;100980.88;;;19.42;100.00
13486;BME280;6815;59.336;17.998;2022-07-01T06:00:40;100965.06;;;19.37;100.00
13486;BME280;6815;59.336;17.998;2022-07-01T06:03:09;100979.00;;;19.44;100.00
13486;BME280;6815;59.336;17.998;2022-07-01T06:05:35;100971.63;;;19.49;100.00
13486;BME280;6815;59.336;17.998;2022-07-01T06:08:00;100971.41;;;19.54;100.00
13486;BME280;6815;59.336;17.998;2022-07-01T06:10:26;100966.44;;;19.46;100.00
13486;BME280;6815;59.336;17.998;2022-07-01T06:12:51;100956.16;;;19.37;100.00
13486;BME280;6815;59.336;17.998;2022-07-01T06:15:17;100978.13;;;19.62;100.00
13486;BME280;6815;59.336;17.998;2022-07-01T06:17:43;100983.47;;;19.62;100.00
13486;BME280;6815;59.336;17.998;2022-07-01T06:20:08;100988.97;;;19.59;100.00
13486;BME280;6815;59.336;17.998;2022-07-01T06:22:34;100967.91;;;19.52;100.00
13486;BME280;6815;59.336;17.998;2022-07-01T06:25:00;100952.66;;;19.54;100.00
13486;BME280;6815;59.336;17.998;2022-07-01T06:27:26;100961.41;;;19.57;100.00
13486;BME280;6815;59.336;17.998;2022-07-01T06:29:52;100959.13;;;19.50;100.00
13486;BME280;6815;59.336;17.998;2022-07-01T06:32:18;100935.63;;;19.37;100.00
13486;BME280;6815;59.336;17.998;2022-07-01T06:34:43;100952.81;;;19.51;100.00
13486;BME280;6815;59.336;17.998;2022-07-01T06:37:09;100959.63;;;19.39;100.00
13486;BME280;6815;59.336;17.998;2022-07-01T06:39:34;100967.56;;;19.59;100.00
13486;BME280;6815;59.336;17.998;2022-07-01T06:42:00;100947.75;;;19.45;100.00
13486;BME280;6815;59.336;17.998;2022-07-01T06:44:25;100965.38;;;19.68;100.00
13486;BME280;6815;59.336;17.998;2022-07-01T06:46:51;100950.22;;;19.68;100.00
13486;BME280;6815;59.336;17.998;2022-07-01T06:49:17;100971.25;;;19.57;100.00
13486;BME280;6815;59.336;17.998;2022-07-01T06:51:42;100964.38;;;19.51;100.00
13486;BME280;6815;59.336;17.998;2022-07-01T06:54:08;100946.03;;;19.44;100.00
13486;BME280;6815;59.336;17.998;2022-07-01T06:56:34;100960.59;;;19.55;100.00
13486;BME280;6815;59.336;17.998;2022-07-01T06:58:59;100963.44;;;19.52;100.00
13486;BME280;6815;59.336;17.998;2022-07-01T07:01:26;100963.81;;;19.45;100.00
13486;BME280;6815;59.336;17.998;2022-07-01T07:03:52;100946.19;;;19.40;100.00
13486;BME280;6815;59.336;17.998;2022-07-01T07:06:17;100956.13;;;19.56;100.00
13486;BME280;6815;59.336;17.998;2022-07-01T07:08:43;100950.03;;;19.52;100.00
13486;BME280;6815;59.336;17.998;2022-07-01T07:11:08;100929.78;;;19.29;100.00
13486;BME280;6815;59.336;17.998;2022-07-01T07:13:35;100961.25;;;19.60;100.00
13486;BME280;6815;59.336;17.998;2022-07-01T07:16:00;100961.84;;;19.48;100.00
13486;BME280;6815;59.336;17.998;2022-07-01T07:18:26;100947.00;;;19.60;100.00
13486;BME280;6815;59.336;17.998;2022-07-01T07:20:51;100946.34;;;19.55;100.00
13486;BME280;6815;59.336;17.998;2022-07-01T07:23:16;100950.28;;;19.48;100.00
13486;BME280;6815;59.336;17.998;2022-07-01T07:25:42;100948.44;;;19.31;100.00
13486;BME280;6815;59.336;17.998;2022-07-01T07:28:07;100951.03;;;19.32;100.00
13486;BME280;6815;59.336;17.998;2022-07-01T07:30:32;100950.81;;;19.37;100.00
13486;BME280;6815;59.336;17.998;2022-07-01T07:32:58;100956.19;;;19.54;100.00
13486;BME280;6815;59.336;17.998;2022-07-01T07:35:24;100929.63;;;19.32;100.00
13486;BME280;6815;59.336;17.998;2022-07-01T07:37:49;100949.16;;;19.34;100.00
13486;BME280;6815;59.336;17.998;2022-07-01T07:40:15;100979.47;;;19.52;100.00
13486;BME280;6815;59.336;17.998;2022-07-01T07:42:46;100977.19;;;19.45;100.00
13486;BME280;6815;59.336;17.998;2022-07-01T07:45:14;100974.31;;;19.49;100.00
13486;BME280;6815;59.336;17.998;2022-07-01T07:47:48;100979.00;;;19.44;100.00
13486;BME280;6815;59.336;17.998;2022-07-01T07:50:14;100962.16;;;19.42;100.00
13486;BME280;6815;59.336;17.998;2022-07-01T07:52:40;100982.41;;;19.67;100.00
13486;BME280;6815;59.336;17.998;2022-07-01T07:55:08;100973.25;;;19.52;100.00
13486;BME280;6815;59.336;17.998;2022-07-01T07:57:35;100967.44;;;19.44;100.00
13486;BME280;6815;59.336;17.998;2022-07-01T08:00:01;100964.81;;;19.42;100.00
13486;BME280;6815;59.336;17.998;2022-07-01T08:02:26;100992.72;;;19.55;100.00
13486;BME280;6815;59.336;17.998;2022-07-01T08:04:52;100999.69;;;19.59;100.00
13486;BME280;6815;59.336;17.998;2022-07-01T08:07:18;100991.44;;;19.45;100.00
13486;BME280;6815;59.336;17.998;2022-07-01T08:09:44;100985.59;;;19.37;100.00
13486;BME280;6815;59.336;17.998;2022-07-01T08:12:13;100973.72;;;19.24;100.00
13486;BME280;6815;59.336;17.998;2022-07-01T08:14:38;100984.94;;;19.32;100.00
13486;BME280;6815;59.336;17.998;2022-07-01T08:17:04;100984.94;;;19.32;100.00
13486;BME280;6815;59.336;17.998;2022-07-01T08:19:29;101007.00;;;19.37;100.00
13486;BME280;6815;59.336;17.998;2022-07-01T08:21:55;101002.28;;;19.23;100.00
13486;BME280;6815;59.336;17.998;2022-07-01T08:24:20;101002.44;;;19.39;100.00
13486;BME280;6815;59.336;17.998;2022-07-01T08:26:46;101000.63;;;19.39;100.00
13486;BME280;6815;59.336;17.998;2022-07-01T08:29:11;100993.41;;;19.23;100.00
13486;BME280;6815;59.336;17.998;2022-07-01T08:31:37;101026.16;;;19.47;100.00
13486;BME280;6815;59.336;17.998;2022-07-01T08:34:02;101011.19;;;19.24;100.00
13486;BME280;6815;59.336;17.998;2022-07-01T08:36:28;101009.06;;;19.30;100.00
13486;BME280;6815;59.336;17.998;2022-07-01T08:38:53;101020.09;;;19.24;100.00
13486;BME280;6815;59.336;17.998;2022-07-01T08:41:18;100998.91;;;19.19;100.00
13486;BME280;6815;59.336;17.998;2022-07-01T08:43:46;101014.50;;;19.29;100.00
13486;BME280;6815;59.336;17.998;2022-07-01T08:46:12;101017.72;;;19.37;100.00
13486;BME280;6815;59.336;17.998;2022-07-01T08:48:42;101002.72;;;19.33;100.00
13486;BME280;6815;59.336;17.998;2022-07-01T08:51:08;101008.59;;;19.41;100.00
13486;BME280;6815;59.336;17.998;2022-07-01T08:53:34;101013.66;;;19.47;100.00
13486;BME280;6815;59.336;17.998;2022-07-01T08:56:02;101026.94;;;19.49;100.00
13486;BME280;6815;59.336;17.998;2022-07-01T08:58:50;101001.56;;;19.38;100.00
13486;BME280;6815;59.336;17.998;2022-07-01T09:01:21;101034.97;;;19.49;100.00
13486;BME280;6815;59.336;17.998;2022-07-01T09:03:47;101018.56;;;19.37;100.00
13486;BME280;6815;59.336;17.998;2022-07-01T09:06:18;101017.28;;;19.46;100.00
13486;BME280;6815;59.336;17.998;2022-07-01T09:08:45;100995.78;;;19.29;100.00
13486;BME280;6815;59.336;17.998;2022-07-01T09:11:21;101032.94;;;19.54;100.00
13486;BME280;6815;59.336;17.998;2022-07-01T09:14:05;101030.94;;;19.59;100.00
13486;BME280;6815;59.336;17.998;2022-07-01T09:19:10;101029.41;;;19.53;100.00
13486;BME280;6815;59.336;17.998;2022-07-01T09:21:36;101021.53;;;19.50;100.00
13486;BME280;6815;59.336;17.998;2022-07-01T09:24:27;101038.22;;;19.55;100.00
13486;BME280;6815;59.336;17.998;2022-07-01T09:26:58;101035.63;;;19.54;100.00
13486;BME280;6815;59.336;17.998;2022-07-01T09:29:31;101025.16;;;19.49;100.00
13486;BME280;6815;59.336;17.998;2022-07-01T09:31:58;101022.16;;;19.55;100.00
13486;BME280;6815;59.336;17.998;2022-07-01T09:34:24;101033.09;;;19.70;100.00
13486;BME280;6815;59.336;17.998;2022-07-01T09:37:00;101054.72;;;19.84;100.00
13486;BME280;6815;59.336;17.998;2022-07-01T09:39:25;101049.94;;;19.91;100.00
13486;BME280;6815;59.336;17.998;2022-07-01T09:41:55;101052.56;;;20.09;100.00
13486;BME280;6815;59.336;17.998;2022-07-01T09:44:21;101040.25;;;20.05;100.00
13486;BME280;6815;59.336;17.998;2022-07-01T09:46:54;101027.91;;;20.03;100.00
13486;BME280;6815;59.336;17.998;2022-07-01T09:49:20;101048.41;;;20.21;100.00
13486;BME280;6815;59.336;17.998;2022-07-01T09:51:45;101053.44;;;20.27;100.00
13486;BME280;6815;59.336;17.998;2022-07-01T09:54:14;101038.06;;;20.14;100.00
13486;BME280;6815;59.336;17.998;2022-07-01T09:56:40;101045.41;;;20.27;100.00
13486;BME280;6815;59.336;17.998;2022-07-01T09:59:05;101014.22;;;20.26;100.00
13486;BME280;6815;59.336;17.998;2022-07-01T10:01:31;101048.69;;;20.51;100.00
13486;BME280;6815;59.336;17.998;2022-07-01T10:03:58;101043.00;;;20.58;100.00
13486;BME280;6815;59.336;17.998;2022-07-01T10:06:57;101023.38;;;20.57;100.00
13486;BME280;6815;59.336;17.998;2022-07-01T10:15:10;101027.91;;;21.06;100.00
13486;BME280;6815;59.336;17.998;2022-07-01T10:17:41;101014.13;;;20.96;100.00
13486;BME280;6815;59.336;17.998;2022-07-01T10:20:17;100995.97;;;20.85;100.00
13486;BME280;6815;59.336;17.998;2022-07-01T10:22:44;101030.88;;;21.01;100.00
13486;BME280;6815;59.336;17.998;2022-07-01T10:25:48;101038.53;;;20.91;100.00
13486;BME280;6815;59.336;17.998;2022-07-01T10:31:16;101026.03;;;21.08;100.00
13486;BME280;6815;59.336;17.998;2022-07-01T10:44:20;101005.94;;;21.15;100.00
13486;BME280;6815;59.336;17.998;2022-07-01T10:46:54;101004.16;;;21.15;100.00
13486;BME280;6815;59.336;17.998;2022-07-01T10:52:17;101022.97;;;21.31;100.00
13486;BME280;6815;59.336;17.998;2022-07-01T10:54:50;100998.97;;;21.12;100.00
13486;BME280;6815;59.336;17.998;2022-07-01T10:59:45;101019.97;;;21.37;100.00
13486;BME280;6815;59.336;17.998;2022-07-01T11:02:44;101009.22;;;21.37;100.00
13486;BME280;6815;59.336;17.998;2022-07-01T11:05:11;101009.81;;;21.42;100.00
13486;BME280;6815;59.336;17.998;2022-07-01T11:07:38;101024.56;;;21.51;100.00
13486;BME280;6815;59.336;17.998;2022-07-01T11:10:06;101006.97;;;21.45;100.00
13486;BME280;6815;59.336;17.998;2022-07-01T11:12:34;101028.19;;;21.50;100.00
13486;BME280;6815;59.336;17.998;2022-07-01T11:15:01;101032.78;;;21.48;100.00
13486;BME280;6815;59.336;17.998;2022-07-01T11:17:27;101015.53;;;21.52;100.00
13486;BME280;6815;59.336;17.998;2022-07-01T11:19:56;101017.97;;;21.57;100.00
13486;BME280;6815;59.336;17.998;2022-07-01T11:22:31;101018.72;;;21.59;100.00
13486;BME280;6815;59.336;17.998;2022-07-01T11:25:23;101016.84;;;21.61;100.00
13486;BME280;6815;59.336;17.998;2022-07-01T11:27:50;101022.03;;;21.64;100.00
13486;BME280;6815;59.336;17.998;2022-07-01T11:30:17;101028.72;;;21.57;100.00
13486;BME280;6815;59.336;17.998;2022-07-01T11:32:57;101022.13;;;21.62;100.00
13486;BME280;6815;59.336;17.998;2022-07-01T11:35:25;101008.34;;;21.53;100.00
13486;BME280;6815;59.336;17.998;2022-07-01T11:38:17;101002.22;;;21.51;100.00
13486;BME280;6815;59.336;17.998;2022-07-01T11:41:04;101024.56;;;21.51;100.00
13486;BME280;6815;59.336;17.998;2022-07-01T11:43:33;101016.22;;;21.56;100.00
13486;BME280;6815;59.336;17.998;2022-07-01T11:46:01;101031.56;;;21.69;100.00
13486;BME280;6815;59.336;17.998;2022-07-01T11:48:42;101023.94;;;21.62;100.00
13486;BME280;6815;59.336;17.998;2022-07-01T11:51:13;101017.88;;;21.58;100.00
13486;BME280;6815;59.336;17.998;2022-07-01T11:53:41;101029.13;;;21.81;100.00
13486;BME280;6815;59.336;17.998;2022-07-01T11:56:07;100993.00;;;21.70;100.00
13486;BME280;6815;59.336;17.998;2022-07-01T11:58:42;101036.13;;;21.99;100.00
13486;BME280;6815;59.336;17.998;2022-07-01T12:01:08;101022.72;;;21.83;100.00
13486;BME280;6815;59.336;17.998;2022-07-01T12:03:34;101008.66;;;21.94;100.00
13486;BME280;6815;59.336;17.998;2022-07-01T12:06:01;101032.31;;;22.03;100.00
13486;BME280;6815;59.336;17.998;2022-07-01T12:08:26;101017.66;;;21.93;100.00
13486;BME280;6815;59.336;17.998;2022-07-01T12:10:52;101028.91;;;22.00;100.00
13486;BME280;6815;59.336;17.998;2022-07-01T12:13:25;101016.47;;;21.83;100.00
13486;BME280;6815;59.336;17.998;2022-07-01T12:15:51;101017.25;;;21.85;100.00
13486;BME280;6815;59.336;17.998;2022-07-01T12:18:17;101033.00;;;22.07;100.00
13486;BME280;6815;59.336;17.998;2022-07-01T12:20:50;101017.25;;;22.15;99.44
13486;BME280;6815;59.336;17.998;2022-07-01T12:23:19;101029.34;;;22.08;98.55
13486;BME280;6815;59.336;17.998;2022-07-01T12:25:51;101016.19;;;22.19;98.12
13486;BME280;6815;59.336;17.998;2022-07-01T12:28:36;101017.34;;;22.29;97.33
13486;BME280;6815;59.336;17.998;2022-07-01T12:31:07;101022.72;;;22.29;96.98
13486;BME280;6815;59.336;17.998;2022-07-01T12:33:37;101020.50;;;22.22;97.15
13486;BME280;6815;59.336;17.998;2022-07-01T12:36:04;101016.94;;;22.21;97.09
13486;BME280;6815;59.336;17.998;2022-07-01T12:38:33;100999.31;;;22.15;97.04
13486;BME280;6815;59.336;17.998;2022-07-01T12:40:59;100982.78;;;22.23;97.29
13486;BME280;6815;59.336;17.998;2022-07-01T12:43:28;100995.19;;;22.26;97.99
13486;BME280;6815;59.336;17.998;2022-07-01T12:45:58;101000.06;;;22.19;98.64
13486;BME280;6815;59.336;17.998;2022-07-01T12:48:24;101012.78;;;22.46;95.64
13486;BME280;6815;59.336;17.998;2022-07-01T12:50:55;101013.06;;;22.41;94.72
13486;BME280;6815;59.336;17.998;2022-07-01T12:53:22;101014.31;;;22.35;94.82
13486;BME280;6815;59.336;17.998;2022-07-01T12:55:56;101015.66;;;22.43;94.15
13486;BME280;6815;59.336;17.998;2022-07-01T12:58:24;101020.44;;;22.37;95.46
13486;BME280;6815;59.336;17.998;2022-07-01T13:00:52;101006.53;;;22.15;97.51
13486;BME280;6815;59.336;17.998;2022-07-01T13:03:23;101011.38;;;22.24;98.08
13486;BME280;6815;59.336;17.998;2022-07-01T13:05:49;100990.16;;;22.20;98.15
13486;BME280;6815;59.336;17.998;2022-07-01T13:08:16;101022.06;;;22.10;97.83
13486;BME280;6815;59.336;17.998;2022-07-01T13:10:42;100994.50;;;22.06;97.38